sensor_id;sensor_type;location;lat;lon;timestamp;P1;durP1;ratioP1;P2;durP2;ratioP2
79640;SDS011;69115;49.904;14.390;2023-04-19T00:01:44;44.30;;;25.50;;
79640;SDS011;69115;49.904;14.390;2023-04-19T00:04:10;39.05;;;23.20;;
79640;SDS011;69115;49.904;14.390;2023-04-19T00:06:35;43.85;;;26.23;;
79640;SDS011;69115;49.904;14.390;2023-04-19T00:09:01;42.35;;;25.23;;
79640;SDS011;69115;49.904;14.390;2023-04-19T00:11:27;37.13;;;22.52;;
79640;SDS011;69115;49.904;14.390;2023-04-19T00:13:52;39.63;;;23.17;;
79640;SDS011;69115;49.904;14.390;2023-04-19T00:16:17;44.58;;;25.88;;
79640;SDS011;69115;49.904;14.390;2023-04-19T00:18:43;42.97;;;24.40;;
79640;SDS011;69115;49.904;14.390;2023-04-19T00:21:08;36.67;;;20.57;;
79640;SDS011;69115;49.904;14.390;2023-04-19T00:23:34;43.67;;;25.48;;
79640;SDS011;69115;49.904;14.390;2023-04-19T00:26:02;39.70;;;22.58;;
79640;SDS011;69115;49.904;14.390;2023-04-19T00:28:28;46.05;;;27.02;;
79640;SDS011;69115;49.904;14.390;2023-04-19T00:30:54;39.53;;;24.73;;
79640;SDS011;69115;49.904;14.390;2023-04-19T00:33:20;41.78;;;24.23;;
79640;SDS011;69115;49.904;14.390;2023-04-19T00:35:45;43.47;;;24.77;;
79640;SDS011;69115;49.904;14.390;2023-04-19T00:38:11;42.47;;;25.38;;
79640;SDS011;69115;49.904;14.390;2023-04-19T00:40:36;39.72;;;22.67;;
79640;SDS011;69115;49.904;14.390;2023-04-19T00:43:02;40.22;;;23.10;;
79640;SDS011;69115;49.904;14.390;2023-04-19T00:45:27;38.80;;;22.85;;
79640;SDS011;69115;49.904;14.390;2023-04-19T00:47:52;43.03;;;25.67;;
79640;SDS011;69115;49.904;14.390;2023-04-19T00:50:18;40.60;;;23.70;;
79640;SDS011;69115;49.904;14.390;2023-04-19T00:52:44;43.03;;;24.85;;
79640;SDS011;69115;49.904;14.390;2023-04-19T00:55:10;40.80;;;24.38;;
79640;SDS011;69115;49.904;14.390;2023-04-19T00:57:36;38.47;;;21.52;;
79640;SDS011;69115;49.904;14.390;2023-04-19T01:00:01;44.08;;;25.35;;
79640;SDS011;69115;49.904;14.390;2023-04-19T01:02:30;42.58;;;24.58;;
79640;SDS011;69115;49.904;14.390;2023-04-19T01:04:55;44.30;;;24.85;;
79640;SDS011;69115;49.904;14.390;2023-04-19T01:07:21;45.42;;;26.48;;
79640;SDS011;69115;49.904;14.390;2023-04-19T01:09:47;38.85;;;21.33;;
79640;SDS011;69115;49.904;14.390;2023-04-19T01:12:12;43.90;;;25.40;;
79640;SDS011;69115;49.904;14.390;2023-04-19T01:14:38;40.72;;;23.85;;
79640;SDS011;69115;49.904;14.390;2023-04-19T01:17:04;40.63;;;24.05;;
79640;SDS011;69115;49.904;14.390;2023-04-19T01:19:30;33.33;;;19.55;;
79640;SDS011;69115;49.904;14.390;2023-04-19T01:21:55;37.38;;;21.17;;
79640;SDS011;69115;49.904;14.390;2023-04-19T01:24:22;38.00;;;23.45;;
79640;SDS011;69115;49.904;14.390;2023-04-19T01:26:47;39.03;;;24.17;;
79640;SDS011;69115;49.904;14.390;2023-04-19T01:29:12;39.13;;;24.60;;
79640;SDS011;69115;49.904;14.390;2023-04-19T01:31:39;43.00;;;25.67;;
79640;SDS011;69115;49.904;14.390;2023-04-19T01:34:05;38.90;;;22.63;;
79640;SDS011;69115;49.904;14.390;2023-04-19T01:36:30;45.50;;;25.58;;
79640;SDS011;69115;49.904;14.390;2023-04-19T01:38:56;38.72;;;22.63;;
79640;SDS011;69115;49.904;14.390;2023-04-19T01:41:21;34.95;;;20.08;;
79640;SDS011;69115;49.904;14.390;2023-04-19T01:43:51;40.83;;;23.13;;
79640;SDS011;69115;49.904;14.390;2023-04-19T01:46:16;42.33;;;23.35;;
79640;SDS011;69115;49.904;14.390;2023-04-19T01:48:42;36.13;;;21.30;;
79640;SDS011;69115;49.904;14.390;2023-04-19T01:51:07;35.63;;;20.17;;
79640;SDS011;69115;49.904;14.390;2023-04-19T01:53:32;38.50;;;22.85;;
79640;SDS011;69115;49.904;14.390;2023-04-19T01:55:58;35.92;;;20.48;;
79640;SDS011;69115;49.904;14.390;2023-04-19T01:58:23;38.15;;;24.23;;
79640;SDS011;69115;49.904;14.390;2023-04-19T02:00:49;36.67;;;20.98;;
79640;SDS011;69115;49.904;14.390;2023-04-19T02:03:14;38.60;;;21.55;;
79640;SDS011;69115;49.904;14.390;2023-04-19T02:05:39;39.90;;;23.42;;
79640;SDS011;69115;49.904;14.390;2023-04-19T02:08:05;37.08;;;21.33;;
79640;SDS011;69115;49.904;14.390;2023-04-19T02:10:30;39.85;;;22.13;;
79640;SDS011;69115;49.904;14.390;2023-04-19T02:12:56;39.72;;;22.73;;
79640;SDS011;69115;49.904;14.390;2023-04-19T02:15:21;39.30;;;22.17;;
79640;SDS011;69115;49.904;14.390;2023-04-19T02:17:47;38.15;;;21.77;;
79640;SDS011;69115;49.904;14.390;2023-04-19T02:20:12;33.70;;;20.13;;
79640;SDS011;69115;49.904;14.390;2023-04-19T02:22:37;37.08;;;21.60;;
79640;SDS011;69115;49.904;14.390;2023-04-19T02:25:03;40.40;;;23.73;;
79640;SDS011;69115;49.904;14.390;2023-04-19T02:27:29;36.70;;;22.85;;
79640;SDS011;69115;49.904;14.390;2023-04-19T02:29:55;36.88;;;22.50;;
79640;SDS011;69115;49.904;14.390;2023-04-19T02:32:20;36.10;;;22.70;;
79640;SDS011;69115;49.904;14.390;2023-04-19T02:34:45;39.90;;;23.67;;
79640;SDS011;69115;49.904;14.390;2023-04-19T02:37:11;37.95;;;21.38;;
79640;SDS011;69115;49.904;14.390;2023-04-19T02:39:36;35.83;;;21.30;;
79640;SDS011;69115;49.904;14.390;2023-04-19T02:42:02;42.35;;;23.85;;
79640;SDS011;69115;49.904;14.390;2023-04-19T02:44:27;38.92;;;23.05;;
79640;SDS011;69115;49.904;14.390;2023-04-19T02:46:53;35.03;;;20.48;;
79640;SDS011;69115;49.904;14.390;2023-04-19T02:49:19;36.20;;;20.73;;
79640;SDS011;69115;49.904;14.390;2023-04-19T02:51:45;36.83;;;22.75;;
79640;SDS011;69115;49.904;14.390;2023-04-19T02:54:11;36.58;;;22.63;;
79640;SDS011;69115;49.904;14.390;2023-04-19T02:56:36;33.15;;;19.88;;
79640;SDS011;69115;49.904;14.390;2023-04-19T02:59:05;40.53;;;23.13;;
79640;SDS011;69115;49.904;14.390;2023-04-19T03:01:30;41.70;;;23.48;;
79640;SDS011;69115;49.904;14.390;2023-04-19T03:03:56;42.78;;;24.88;;
79640;SDS011;69115;49.904;14.390;2023-04-19T03:06:22;38.90;;;23.20;;
79640;SDS011;69115;49.904;14.390;2023-04-19T03:08:47;43.15;;;25.25;;
79640;SDS011;69115;49.904;14.390;2023-04-19T03:11:14;40.60;;;24.42;;
79640;SDS011;69115;49.904;14.390;2023-04-19T03:13:40;38.10;;;22.60;;
79640;SDS011;69115;49.904;14.390;2023-04-19T03:16:05;42.75;;;23.52;;
79640;SDS011;69115;49.904;14.390;2023-04-19T03:18:31;42.10;;;23.90;;
79640;SDS011;69115;49.904;14.390;2023-04-19T03:20:56;45.58;;;24.95;;
79640;SDS011;69115;49.904;14.390;2023-04-19T03:23:22;36.83;;;21.60;;
79640;SDS011;69115;49.904;14.390;2023-04-19T03:25:47;44.50;;;24.08;;
79640;SDS011;69115;49.904;14.390;2023-04-19T03:28:13;40.80;;;24.48;;
79640;SDS011;69115;49.904;14.390;2023-04-19T03:30:38;36.17;;;21.48;;
79640;SDS011;69115;49.904;14.390;2023-04-19T03:33:03;36.72;;;21.25;;
79640;SDS011;69115;49.904;14.390;2023-04-19T03:35:29;43.30;;;24.00;;
79640;SDS011;69115;49.904;14.390;2023-04-19T03:37:56;43.78;;;26.30;;
79640;SDS011;69115;49.904;14.390;2023-04-19T03:40:21;45.60;;;25.60;;
79640;SDS011;69115;49.904;14.390;2023-04-19T03:42:46;40.53;;;24.67;;
79640;SDS011;69115;49.904;14.390;2023-04-19T03:45:12;40.28;;;23.42;;
79640;SDS011;69115;49.904;14.390;2023-04-19T03:47:37;40.08;;;24.08;;
79640;SDS011;69115;49.904;14.390;2023-04-19T03:50:03;41.38;;;24.55;;
79640;SDS011;69115;49.904;14.390;2023-04-19T03:52:28;43.72;;;25.20;;
79640;SDS011;69115;49.904;14.390;2023-04-19T03:54:54;42.28;;;25.85;;
79640;SDS011;69115;49.904;14.390;2023-04-19T03:57:19;39.35;;;25.27;;
79640;SDS011;69115;49.904;14.390;2023-04-19T03:59:46;38.13;;;23.20;;
79640;SDS011;69115;49.904;14.390;2023-04-19T04:02:11;41.88;;;23.95;;
79640;SDS011;69115;49.904;14.390;2023-04-19T04:04:37;41.40;;;25.50;;
79640;SDS011;69115;49.904;14.390;2023-04-19T04:07:02;43.20;;;27.20;;
79640;SDS011;69115;49.904;14.390;2023-04-19T04:09:27;42.35;;;26.80;;
79640;SDS011;69115;49.904;14.390;2023-04-19T04:11:53;42.88;;;26.92;;
79640;SDS011;69115;49.904;14.390;2023-04-19T04:14:18;40.45;;;24.45;;
79640;SDS011;69115;49.904;14.390;2023-04-19T04:16:44;34.97;;;21.70;;
79640;SDS011;69115;49.904;14.390;2023-04-19T04:19:09;41.88;;;26.35;;
79640;SDS011;69115;49.904;14.390;2023-04-19T04:21:35;41.30;;;23.67;;
79640;SDS011;69115;49.904;14.390;2023-04-19T04:24:00;44.63;;;27.15;;
79640;SDS011;69115;49.904;14.390;2023-04-19T04:26:29;40.72;;;25.85;;
79640;SDS011;69115;49.904;14.390;2023-04-19T04:29:03;41.95;;;25.25;;
79640;SDS011;69115;49.904;14.390;2023-04-19T04:31:29;43.30;;;24.02;;
79640;SDS011;69115;49.904;14.390;2023-04-19T04:33:55;43.17;;;25.38;;
79640;SDS011;69115;49.904;14.390;2023-04-19T04:36:21;42.05;;;24.83;;
79640;SDS011;69115;49.904;14.390;2023-04-19T04:38:46;39.00;;;23.52;;
79640;SDS011;69115;49.904;14.390;2023-04-19T04:41:12;42.00;;;24.65;;
79640;SDS011;69115;49.904;14.390;2023-04-19T04:43:38;42.53;;;24.55;;
79640;SDS011;69115;49.904;14.390;2023-04-19T04:46:03;40.22;;;25.70;;
79640;SDS011;69115;49.904;14.390;2023-04-19T04:48:29;37.38;;;22.27;;
79640;SDS011;69115;49.904;14.390;2023-04-19T04:50:55;39.30;;;24.30;;
79640;SDS011;69115;49.904;14.390;2023-04-19T04:53:21;42.90;;;25.08;;
79640;SDS011;69115;49.904;14.390;2023-04-19T04:55:47;39.33;;;24.63;;
79640;SDS011;69115;49.904;14.390;2023-04-19T04:58:12;40.22;;;25.52;;
79640;SDS011;69115;49.904;14.390;2023-04-19T05:00:37;41.38;;;24.20;;
79640;SDS011;69115;49.904;14.390;2023-04-19T05:03:03;40.80;;;24.73;;
79640;SDS011;69115;49.904;14.390;2023-04-19T05:05:28;41.47;;;25.80;;
79640;SDS011;69115;49.904;14.390;2023-04-19T05:07:54;42.92;;;23.63;;
79640;SDS011;69115;49.904;14.390;2023-04-19T05:10:19;43.70;;;26.63;;
79640;SDS011;69115;49.904;14.390;2023-04-19T05:12:45;41.08;;;23.90;;
79640;SDS011;69115;49.904;14.390;2023-04-19T05:15:10;43.65;;;25.90;;
79640;SDS011;69115;49.904;14.390;2023-04-19T05:17:38;45.00;;;25.10;;
79640;SDS011;69115;49.904;14.390;2023-04-19T05:20:04;38.97;;;24.90;;
79640;SDS011;69115;49.904;14.390;2023-04-19T05:22:30;45.65;;;24.25;;
79640;SDS011;69115;49.904;14.390;2023-04-19T05:24:55;40.63;;;24.35;;
79640;SDS011;69115;49.904;14.390;2023-04-19T05:27:21;41.30;;;25.30;;
79640;SDS011;69115;49.904;14.390;2023-04-19T05:29:46;37.50;;;24.48;;
79640;SDS011;69115;49.904;14.390;2023-04-19T05:32:11;39.20;;;24.27;;
79640;SDS011;69115;49.904;14.390;2023-04-19T05:34:37;40.78;;;24.80;;
79640;SDS011;69115;49.904;14.390;2023-04-19T05:37:02;40.22;;;23.02;;
79640;SDS011;69115;49.904;14.390;2023-04-19T05:39:28;34.28;;;22.00;;
79640;SDS011;69115;49.904;14.390;2023-04-19T05:41:53;36.13;;;21.77;;
79640;SDS011;69115;49.904;14.390;2023-04-19T05:44:18;39.83;;;21.70;;
79640;SDS011;69115;49.904;14.390;2023-04-19T05:46:44;35.45;;;21.45;;
79640;SDS011;69115;49.904;14.390;2023-04-19T05:49:09;34.20;;;20.15;;
79640;SDS011;69115;49.904;14.390;2023-04-19T05:51:35;31.80;;;19.90;;
79640;SDS011;69115;49.904;14.390;2023-04-19T05:54:00;36.72;;;20.50;;
79640;SDS011;69115;49.904;14.390;2023-04-19T05:56:26;35.13;;;20.80;;
79640;SDS011;69115;49.904;14.390;2023-04-19T05:58:51;33.10;;;20.38;;
79640;SDS011;69115;49.904;14.390;2023-04-19T06:01:16;33.10;;;19.38;;
79640;SDS011;69115;49.904;14.390;2023-04-19T06:03:42;34.97;;;20.27;;
79640;SDS011;69115;49.904;14.390;2023-04-19T06:06:07;33.33;;;20.45;;
79640;SDS011;69115;49.904;14.390;2023-04-19T06:08:34;30.55;;;19.17;;
79640;SDS011;69115;49.904;14.390;2023-04-19T06:11:00;31.40;;;18.85;;
79640;SDS011;69115;49.904;14.390;2023-04-19T06:13:25;31.17;;;18.65;;
79640;SDS011;69115;49.904;14.390;2023-04-19T06:15:50;32.08;;;18.52;;
79640;SDS011;69115;49.904;14.390;2023-04-19T06:18:16;30.52;;;18.75;;
79640;SDS011;69115;49.904;14.390;2023-04-19T06:20:41;28.75;;;18.25;;
79640;SDS011;69115;49.904;14.390;2023-04-19T06:23:07;28.42;;;18.25;;
79640;SDS011;69115;49.904;14.390;2023-04-19T06:25:32;31.25;;;18.27;;
79640;SDS011;69115;49.904;14.390;2023-04-19T06:27:58;29.27;;;17.10;;
79640;SDS011;69115;49.904;14.390;2023-04-19T06:30:23;31.23;;;17.90;;
79640;SDS011;69115;49.904;14.390;2023-04-19T06:32:49;27.48;;;17.20;;
79640;SDS011;69115;49.904;14.390;2023-04-19T06:35:14;28.42;;;17.25;;
79640;SDS011;69115;49.904;14.390;2023-04-19T06:37:40;27.95;;;16.77;;
79640;SDS011;69115;49.904;14.390;2023-04-19T06:40:06;30.25;;;17.75;;
79640;SDS011;69115;49.904;14.390;2023-04-19T06:42:35;28.35;;;17.52;;
79640;SDS011;69115;49.904;14.390;2023-04-19T06:45:03;28.67;;;18.45;;
79640;SDS011;69115;49.904;14.390;2023-04-19T06:47:29;30.83;;;18.98;;
79640;SDS011;69115;49.904;14.390;2023-04-19T06:49:55;29.90;;;18.02;;
79640;SDS011;69115;49.904;14.390;2023-04-19T06:52:21;31.90;;;18.75;;
79640;SDS011;69115;49.904;14.390;2023-04-19T06:54:48;28.42;;;17.83;;
79640;SDS011;69115;49.904;14.390;2023-04-19T06:57:14;32.95;;;19.52;;
79640;SDS011;69115;49.904;14.390;2023-04-19T06:59:40;32.78;;;18.85;;
79640;SDS011;69115;49.904;14.390;2023-04-19T07:02:05;29.15;;;17.60;;
79640;SDS011;69115;49.904;14.390;2023-04-19T07:04:31;26.10;;;17.13;;
79640;SDS011;69115;49.904;14.390;2023-04-19T07:06:57;27.98;;;16.65;;
79640;SDS011;69115;49.904;14.390;2023-04-19T07:09:22;26.48;;;17.08;;
79640;SDS011;69115;49.904;14.390;2023-04-19T07:11:48;27.60;;;17.23;;
79640;SDS011;69115;49.904;14.390;2023-04-19T07:14:15;29.35;;;18.02;;
79640;SDS011;69115;49.904;14.390;2023-04-19T07:16:43;27.70;;;16.45;;
79640;SDS011;69115;49.904;14.390;2023-04-19T07:19:09;30.95;;;18.58;;
79640;SDS011;69115;49.904;14.390;2023-04-19T07:21:34;29.35;;;18.85;;
79640;SDS011;69115;49.904;14.390;2023-04-19T07:24:00;29.02;;;16.23;;
79640;SDS011;69115;49.904;14.390;2023-04-19T07:26:25;27.98;;;17.88;;
79640;SDS011;69115;49.904;14.390;2023-04-19T07:28:51;30.35;;;19.17;;
79640;SDS011;69115;49.904;14.390;2023-04-19T07:31:17;28.95;;;17.70;;
79640;SDS011;69115;49.904;14.390;2023-04-19T07:33:42;23.75;;;15.35;;
79640;SDS011;69115;49.904;14.390;2023-04-19T07:36:08;24.20;;;16.05;;
79640;SDS011;69115;49.904;14.390;2023-04-19T07:38:34;23.00;;;15.07;;
79640;SDS011;69115;49.904;14.390;2023-04-19T07:41:00;20.42;;;13.18;;
79640;SDS011;69115;49.904;14.390;2023-04-19T07:43:25;20.50;;;13.50;;
79640;SDS011;69115;49.904;14.390;2023-04-19T07:45:51;20.92;;;13.63;;
79640;SDS011;69115;49.904;14.390;2023-04-19T07:48:18;19.73;;;13.70;;
79640;SDS011;69115;49.904;14.390;2023-04-19T07:50:43;18.20;;;12.70;;
79640;SDS011;69115;49.904;14.390;2023-04-19T07:53:09;20.95;;;13.90;;
79640;SDS011;69115;49.904;14.390;2023-04-19T07:55:35;23.42;;;14.25;;
79640;SDS011;69115;49.904;14.390;2023-04-19T07:58:01;18.63;;;12.07;;
79640;SDS011;69115;49.904;14.390;2023-04-19T08:00:27;17.00;;;11.20;;
79640;SDS011;69115;49.904;14.390;2023-04-19T08:02:54;19.50;;;13.18;;
79640;SDS011;69115;49.904;14.390;2023-04-19T08:05:21;18.58;;;13.30;;
79640;SDS011;69115;49.904;14.390;2023-04-19T08:07:46;20.33;;;12.93;;
79640;SDS011;69115;49.904;14.390;2023-04-19T08:10:12;19.65;;;12.48;;
79640;SDS011;69115;49.904;14.390;2023-04-19T08:12:38;15.13;;;10.30;;
79640;SDS011;69115;49.904;14.390;2023-04-19T08:15:05;18.77;;;12.27;;
79640;SDS011;69115;49.904;14.390;2023-04-19T08:17:31;15.48;;;10.52;;
79640;SDS011;69115;49.904;14.390;2023-04-19T08:19:56;17.40;;;11.80;;
79640;SDS011;69115;49.904;14.390;2023-04-19T08:22:22;16.38;;;11.80;;
79640;SDS011;69115;49.904;14.390;2023-04-19T08:24:48;18.83;;;10.88;;
79640;SDS011;69115;49.904;14.390;2023-04-19T08:27:15;16.63;;;11.68;;
79640;SDS011;69115;49.904;14.390;2023-04-19T08:29:41;16.83;;;10.90;;
79640;SDS011;69115;49.904;14.390;2023-04-19T08:32:06;13.77;;;9.60;;
79640;SDS011;69115;49.904;14.390;2023-04-19T08:34:35;14.68;;;9.85;;
79640;SDS011;69115;49.904;14.390;2023-04-19T08:37:01;12.85;;;9.38;;
79640;SDS011;69115;49.904;14.390;2023-04-19T08:39:27;15.48;;;10.15;;
79640;SDS011;69115;49.904;14.390;2023-04-19T08:41:53;12.70;;;9.20;;
79640;SDS011;69115;49.904;14.390;2023-04-19T08:44:20;13.90;;;9.35;;
79640;SDS011;69115;49.904;14.390;2023-04-19T08:46:46;15.05;;;9.73;;
79640;SDS011;69115;49.904;14.390;2023-04-19T08:49:11;14.70;;;10.40;;
79640;SDS011;69115;49.904;14.390;2023-04-19T08:51:37;18.85;;;12.73;;
79640;SDS011;69115;49.904;14.390;2023-04-19T08:54:03;20.30;;;13.55;;
79640;SDS011;69115;49.904;14.390;2023-04-19T08:56:28;18.90;;;12.73;;
79640;SDS011;69115;49.904;14.390;2023-04-19T08:58:54;19.48;;;13.35;;
79640;SDS011;69115;49.904;14.390;2023-04-19T09:01:20;18.55;;;12.30;;
79640;SDS011;69115;49.904;14.390;2023-04-19T09:03:45;19.35;;;11.80;;
79640;SDS011;69115;49.904;14.390;2023-04-19T09:06:11;16.35;;;10.38;;
79640;SDS011;69115;49.904;14.390;2023-04-19T09:08:37;11.20;;;8.50;;
79640;SDS011;69115;49.904;14.390;2023-04-19T09:11:03;13.68;;;8.40;;
79640;SDS011;69115;49.904;14.390;2023-04-19T09:13:29;11.30;;;7.13;;
79640;SDS011;69115;49.904;14.390;2023-04-19T09:15:55;11.25;;;7.97;;
79640;SDS011;69115;49.904;14.390;2023-04-19T09:18:21;14.40;;;7.20;;
79640;SDS011;69115;49.904;14.390;2023-04-19T09:20:48;13.07;;;8.18;;
79640;SDS011;69115;49.904;14.390;2023-04-19T09:23:15;12.93;;;8.60;;
79640;SDS011;69115;49.904;14.390;2023-04-19T09:25:50;12.60;;;8.02;;
79640;SDS011;69115;49.904;14.390;2023-04-19T09:28:24;21.80;;;6.55;;
79640;SDS011;69115;49.904;14.390;2023-04-19T09:30:50;9.30;;;5.20;;
79640;SDS011;69115;49.904;14.390;2023-04-19T09:33:29;11.02;;;4.47;;
79640;SDS011;69115;49.904;14.390;2023-04-19T09:38:24;10.50;;;4.35;;
79640;SDS011;69115;49.904;14.390;2023-04-19T09:40:50;7.63;;;4.68;;
79640;SDS011;69115;49.904;14.390;2023-04-19T09:43:25;9.95;;;4.03;;
79640;SDS011;69115;49.904;14.390;2023-04-19T09:45:51;9.18;;;4.25;;
79640;SDS011;69115;49.904;14.390;2023-04-19T09:48:16;8.52;;;5.05;;
79640;SDS011;69115;49.904;14.390;2023-04-19T09:50:52;7.35;;;4.32;;
79640;SDS011;69115;49.904;14.390;2023-04-19T09:53:19;4.78;;;3.13;;
79640;SDS011;69115;49.904;14.390;2023-04-19T09:55:45;5.28;;;2.90;;
79640;SDS011;69115;49.904;14.390;2023-04-19T09:58:11;4.88;;;2.60;;
79640;SDS011;69115;49.904;14.390;2023-04-19T10:00:38;4.68;;;2.58;;
79640;SDS011;69115;49.904;14.390;2023-04-19T10:03:05;5.88;;;2.70;;
79640;SDS011;69115;49.904;14.390;2023-04-19T10:05:33;4.35;;;2.45;;
79640;SDS011;69115;49.904;14.390;2023-04-19T10:08:00;5.13;;;3.08;;
79640;SDS011;69115;49.904;14.390;2023-04-19T10:10:27;4.70;;;2.95;;
79640;SDS011;69115;49.904;14.390;2023-04-19T10:12:53;4.47;;;2.88;;
79640;SDS011;69115;49.904;14.390;2023-04-19T10:15:21;4.60;;;2.92;;
79640;SDS011;69115;49.904;14.390;2023-04-19T10:17:47;4.78;;;2.92;;
79640;SDS011;69115;49.904;14.390;2023-04-19T10:20:19;4.70;;;2.78;;
79640;SDS011;69115;49.904;14.390;2023-04-19T10:22:47;7.40;;;2.72;;
79640;SDS011;69115;49.904;14.390;2023-04-19T10:25:14;4.93;;;2.90;;
79640;SDS011;69115;49.904;14.390;2023-04-19T10:27:40;8.40;;;3.20;;
79640;SDS011;69115;49.904;14.390;2023-04-19T10:30:19;5.30;;;3.50;;
79640;SDS011;69115;49.904;14.390;2023-04-19T10:35:22;6.53;;;3.35;;
79640;SDS011;69115;49.904;14.390;2023-04-19T10:40:55;7.72;;;3.35;;
79640;SDS011;69115;49.904;14.390;2023-04-19T10:45:54;6.78;;;3.53;;
79640;SDS011;69115;49.904;14.390;2023-04-19T10:50:58;4.47;;;3.53;;
79640;SDS011;69115;49.904;14.390;2023-04-19T11:01:36;6.80;;;4.20;;
79640;SDS011;69115;49.904;14.390;2023-04-19T11:04:07;10.27;;;4.68;;
79640;SDS011;69115;49.904;14.390;2023-04-19T11:06:34;16.67;;;4.38;;
79640;SDS011;69115;49.904;14.390;2023-04-19T11:09:00;8.35;;;4.35;;
79640;SDS011;69115;49.904;14.390;2023-04-19T11:11:27;7.50;;;4.10;;
79640;SDS011;69115;49.904;14.390;2023-04-19T11:13:55;5.78;;;4.03;;
79640;SDS011;69115;49.904;14.390;2023-04-19T11:16:21;7.63;;;3.95;;
79640;SDS011;69115;49.904;14.390;2023-04-19T11:18:47;5.75;;;4.28;;
79640;SDS011;69115;49.904;14.390;2023-04-19T11:21:13;7.57;;;4.10;;
79640;SDS011;69115;49.904;14.390;2023-04-19T11:23:39;7.22;;;4.30;;
79640;SDS011;69115;49.904;14.390;2023-04-19T11:26:05;7.53;;;4.03;;
79640;SDS011;69115;49.904;14.390;2023-04-19T11:28:34;5.90;;;3.80;;
79640;SDS011;69115;49.904;14.390;2023-04-19T11:30:59;5.75;;;4.13;;
79640;SDS011;69115;49.904;14.390;2023-04-19T11:33:25;7.15;;;4.55;;
79640;SDS011;69115;49.904;14.390;2023-04-19T11:35:51;8.68;;;5.07;;
79640;SDS011;69115;49.904;14.390;2023-04-19T11:38:16;6.95;;;3.67;;
79640;SDS011;69115;49.904;14.390;2023-04-19T11:40:42;5.70;;;3.75;;
79640;SDS011;69115;49.904;14.390;2023-04-19T11:43:07;5.90;;;4.10;;
79640;SDS011;69115;49.904;14.390;2023-04-19T11:45:36;7.70;;;3.58;;
79640;SDS011;69115;49.904;14.390;2023-04-19T11:48:05;10.45;;;4.30;;
79640;SDS011;69115;49.904;14.390;2023-04-19T11:50:36;6.60;;;4.05;;
79640;SDS011;69115;49.904;14.390;2023-04-19T11:53:09;7.28;;;3.88;;
79640;SDS011;69115;49.904;14.390;2023-04-19T11:55:35;7.95;;;4.05;;
79640;SDS011;69115;49.904;14.390;2023-04-19T11:58:00;5.63;;;3.65;;
79640;SDS011;69115;49.904;14.390;2023-04-19T12:00:26;8.85;;;4.18;;
79640;SDS011;69115;49.904;14.390;2023-04-19T12:02:53;8.10;;;4.25;;
79640;SDS011;69115;49.904;14.390;2023-04-19T12:05:19;7.88;;;3.97;;
79640;SDS011;69115;49.904;14.390;2023-04-19T12:08:00;7.00;;;4.25;;
79640;SDS011;69115;49.904;14.390;2023-04-19T12:10:27;6.93;;;4.50;;
79640;SDS011;69115;49.904;14.390;2023-04-19T12:12:52;7.13;;;3.50;;
79640;SDS011;69115;49.904;14.390;2023-04-19T12:15:18;9.25;;;4.20;;
79640;SDS011;69115;49.904;14.390;2023-04-19T12:17:59;6.43;;;3.58;;
79640;SDS011;69115;49.904;14.390;2023-04-19T12:20:29;7.70;;;5.65;;
79640;SDS011;69115;49.904;14.390;2023-04-19T12:22:59;7.82;;;4.40;;
79640;SDS011;69115;49.904;14.390;2023-04-19T12:25:28;6.45;;;4.05;;
79640;SDS011;69115;49.904;14.390;2023-04-19T12:27:54;5.28;;;3.65;;
79640;SDS011;69115;49.904;14.390;2023-04-19T12:30:20;6.95;;;3.67;;
79640;SDS011;69115;49.904;14.390;2023-04-19T12:32:45;7.88;;;3.55;;
79640;SDS011;69115;49.904;14.390;2023-04-19T12:35:11;5.80;;;3.40;;
79640;SDS011;69115;49.904;14.390;2023-04-19T12:37:36;5.30;;;3.50;;
79640;SDS011;69115;49.904;14.390;2023-04-19T12:40:02;6.00;;;3.47;;
79640;SDS011;69115;49.904;14.390;2023-04-19T12:42:28;5.97;;;3.00;;
79640;SDS011;69115;49.904;14.390;2023-04-19T12:44:53;4.50;;;2.92;;
79640;SDS011;69115;49.904;14.390;2023-04-19T12:47:18;5.78;;;3.10;;
79640;SDS011;69115;49.904;14.390;2023-04-19T12:49:44;6.25;;;3.30;;
79640;SDS011;69115;49.904;14.390;2023-04-19T12:52:09;4.78;;;3.13;;
79640;SDS011;69115;49.904;14.390;2023-04-19T12:54:35;7.03;;;3.10;;
79640;SDS011;69115;49.904;14.390;2023-04-19T12:57:00;6.75;;;3.05;;
79640;SDS011;69115;49.904;14.390;2023-04-19T12:59:25;4.75;;;2.85;;
79640;SDS011;69115;49.904;14.390;2023-04-19T13:01:51;4.40;;;3.00;;
79640;SDS011;69115;49.904;14.390;2023-04-19T13:04:16;6.53;;;2.70;;
79640;SDS011;69115;49.904;14.390;2023-04-19T13:06:42;6.07;;;3.10;;
79640;SDS011;69115;49.904;14.390;2023-04-19T13:09:07;6.03;;;3.17;;
79640;SDS011;69115;49.904;14.390;2023-04-19T13:11:33;5.22;;;2.70;;
79640;SDS011;69115;49.904;14.390;2023-04-19T13:13:58;4.45;;;3.00;;
79640;SDS011;69115;49.904;14.390;2023-04-19T13:16:24;6.30;;;3.22;;
79640;SDS011;69115;49.904;14.390;2023-04-19T13:18:49;6.28;;;3.08;;
79640;SDS011;69115;49.904;14.390;2023-04-19T13:21:16;3.78;;;2.58;;
79640;SDS011;69115;49.904;14.390;2023-04-19T13:23:42;4.72;;;2.53;;
79640;SDS011;69115;49.904;14.390;2023-04-19T13:26:08;4.90;;;2.70;;
79640;SDS011;69115;49.904;14.390;2023-04-19T13:28:34;4.47;;;2.58;;
79640;SDS011;69115;49.904;14.390;2023-04-19T13:31:00;3.60;;;2.40;;
79640;SDS011;69115;49.904;14.390;2023-04-19T13:33:28;6.40;;;2.65;;
79640;SDS011;69115;49.904;14.390;2023-04-19T13:35:53;4.88;;;2.63;;
79640;SDS011;69115;49.904;14.390;2023-04-19T13:38:18;7.20;;;2.60;;
79640;SDS011;69115;49.904;14.390;2023-04-19T13:40:44;4.22;;;2.53;;
79640;SDS011;69115;49.904;14.390;2023-04-19T13:43:09;5.15;;;2.80;;
79640;SDS011;69115;49.904;14.390;2023-04-19T13:45:35;4.75;;;2.58;;
79640;SDS011;69115;49.904;14.390;2023-04-19T13:48:00;6.00;;;3.05;;
79640;SDS011;69115;49.904;14.390;2023-04-19T13:50:27;7.55;;;3.60;;
79640;SDS011;69115;49.904;14.390;2023-04-19T13:52:53;6.07;;;2.83;;
79640;SDS011;69115;49.904;14.390;2023-04-19T13:55:18;6.35;;;3.00;;
79640;SDS011;69115;49.904;14.390;2023-04-19T13:57:44;5.93;;;3.10;;
79640;SDS011;69115;49.904;14.390;2023-04-19T14:00:09;4.90;;;3.33;;
79640;SDS011;69115;49.904;14.390;2023-04-19T14:02:35;7.53;;;3.08;;
79640;SDS011;69115;49.904;14.390;2023-04-19T14:05:01;6.25;;;2.72;;
79640;SDS011;69115;49.904;14.390;2023-04-19T14:07:26;5.60;;;2.90;;
79640;SDS011;69115;49.904;14.390;2023-04-19T14:09:51;6.15;;;3.00;;
79640;SDS011;69115;49.904;14.390;2023-04-19T14:12:17;5.72;;;3.10;;
79640;SDS011;69115;49.904;14.390;2023-04-19T14:14:42;5.50;;;2.90;;
79640;SDS011;69115;49.904;14.390;2023-04-19T14:17:07;6.70;;;2.83;;
79640;SDS011;69115;49.904;14.390;2023-04-19T14:19:33;6.50;;;3.40;;
79640;SDS011;69115;49.904;14.390;2023-04-19T14:21:58;4.90;;;2.90;;
79640;SDS011;69115;49.904;14.390;2023-04-19T14:24:24;6.10;;;3.13;;
79640;SDS011;69115;49.904;14.390;2023-04-19T14:26:49;5.85;;;2.90;;
79640;SDS011;69115;49.904;14.390;2023-04-19T14:29:15;5.97;;;3.20;;
79640;SDS011;69115;49.904;14.390;2023-04-19T14:31:40;10.82;;;4.88;;
79640;SDS011;69115;49.904;14.390;2023-04-19T14:34:06;6.18;;;3.50;;